Candace — WDB8245 — position and weather

sailwx.info

Track history (hours):
 
Tides and Currents Weather Stations Pressure Air Temp Water Temp Dewpoint Dewpoint Depression Visibility Wind Speed Wind Dir Waves Ship Positions

Candace

Owner: WEEKS MARINE, INC., CRANFORD, NJ. More information available from US FCC via Universal Licensing System and Coast Guard Vessel Documentation Center.

Last reported at 2017-Sep-18 04:54 UTC. Time now 2017-Sep-21 15:52 UTC.
Position N 39°24' W 074°26'.

Length 20 m.

Type: Towing. MMSI: 366955450.

Date/timePositionNaut miles runAvg speedWind from/ knotsBaromVisibWave heightAir tempDewpointWater temp
2017-Sep-18 04:54N 39°24' W 074°26'0 0.0
2017-Sep-18 04:06N 39°24' W 074°26'0 0.0
2017-Sep-18 04:00N 39°24' W 074°26'0 0.0
2017-Sep-18 03:30N 39°24' W 074°26'0 0.0
2017-Sep-18 03:00N 39°24' W 074°26'0 0.0
2017-Sep-18 02:30N 39°24' W 074°26'0 0.0
2017-Sep-18 02:00N 39°24' W 074°26'0 0.0
2017-Sep-18 01:29N 39°24' W 074°26'0 0.0
2017-Sep-17 03:59N 39°24' W 074°26'0 0.0
2017-Sep-17 03:17N 39°24' W 074°26'0 0.0
2017-Sep-17 03:00N 39°24' W 074°26'0 0.0
2017-Sep-17 01:18N 39°24' W 074°26'1 0.1
2017-Sep-16 13:39N 39°23' W 074°25'0 0.0
2017-Sep-16 13:30N 39°23' W 074°25'0 0.0
2017-Sep-16 12:59N 39°23' W 074°25'0 0.0
2017-Sep-16 12:30N 39°23' W 074°25'0 0.0
2017-Sep-16 12:00N 39°23' W 074°25'0 0.0
2017-Sep-16 11:13N 39°23' W 074°25'0 0.0
2017-Sep-16 11:00N 39°23' W 074°25'0 0.0
2017-Sep-16 10:30N 39°23' W 074°25'0 0.0
2017-Sep-16 10:00N 39°23' W 074°25'0 0.0
2017-Sep-16 09:30N 39°23' W 074°25'0 0.0
2017-Sep-16 09:00N 39°23' W 074°25'0 0.0
2017-Sep-16 08:30N 39°23' W 074°25'0 0.0
2017-Sep-16 08:00N 39°23' W 074°25'0 0.0
2017-Sep-16 07:30N 39°23' W 074°25'0 0.0
2017-Sep-16 07:00N 39°23' W 074°25'0 0.0
2017-Sep-16 06:30N 39°23' W 074°25'0 0.0
2017-Sep-16 06:00N 39°23' W 074°25'0 0.0
2017-Sep-16 05:30N 39°23' W 074°25'0 0.0
2017-Sep-16 05:00N 39°23' W 074°25'0 0.0
2017-Sep-16 04:30N 39°23' W 074°25'0 0.0
2017-Sep-16 04:00N 39°23' W 074°25'0 0.0
2017-Sep-16 03:30N 39°23' W 074°25'0 0.0
2017-Sep-16 02:26N 39°23' W 074°25'0 0.0
2017-Sep-16 02:00N 39°23' W 074°25'0 0.0
2017-Sep-16 01:30N 39°23' W 074°25'0 0.0
2017-Sep-16 00:52N 39°23' W 074°25'0 0.0
2017-Sep-16 00:20N 39°23' W 074°25'0 0.0
2017-Sep-15 23:51N 39°23' W 074°25'0 0.0
2017-Sep-15 23:30N 39°23' W 074°25'21 3.5
2017-Sep-15 17:28N 39°39' W 074°07'5 9.7
2017-Sep-15 17:00N 39°43' W 074°05'3 6.2
2017-Sep-15 16:28N 39°46' W 074°07'0 0.0
2017-Sep-15 15:59N 39°46' W 074°07'0 0.0
2017-Sep-15 15:28N 39°46' W 074°07'0 0.0
2017-Sep-15 14:57N 39°46' W 074°07'0 0.0
2017-Sep-15 14:29N 39°46' W 074°07'0 0.1
2017-Sep-15 13:58N 39°46' W 074°07'0 0.1
2017-Sep-15 13:29N 39°46' W 074°07'1 1.5
2017-Sep-15 13:00N 39°46' W 074°06'1 1.3
2017-Sep-15 12:27N 39°46' W 074°05'1 3.1
2017-Sep-15 11:59N 39°44' W 074°04'3 6.3
2017-Sep-15 11:30N 39°42' W 074°06'4 7.2
2017-Sep-15 10:58N 39°38' W 074°08'59 5.2
2017-Sep-14 23:32N 39°07' W 075°13'0 8.1
2017-Sep-14 23:30N 39°07' W 075°13'4 7.6
2017-Sep-14 23:00N 39°10' W 075°16'3 7.0
2017-Sep-14 22:31N 39°13' W 075°18'3 6.4
2017-Sep-14 22:01N 39°16' W 075°20'3 5.7
2017-Sep-14 21:31N 39°18' W 075°23'3 5.0
2017-Sep-14 21:00N 39°20' W 075°25'2 4.8
2017-Sep-14 20:31N 39°22' W 075°27'3 5.1
2017-Sep-14 20:00N 39°23' W 075°29'3 5.1
2017-Sep-14 19:31N 39°25' W 075°31'3 5.2
2017-Sep-14 19:00N 39°28' W 075°33'3 5.5
2017-Sep-14 18:30N 39°30' W 075°33'3 6.5
2017-Sep-14 18:01N 39°33' W 075°33'4 7.7
2017-Sep-14 17:31N 39°37' W 075°35'4 7.5
2017-Sep-14 17:01N 39°40' W 075°32'4 7.9
2017-Sep-14 16:30N 39°44' W 075°30'4 7.6
2017-Sep-14 16:01N 39°47' W 075°28'4 7.5
2017-Sep-14 15:31N 39°49' W 075°24'2 3.2
2017-Sep-14 15:00N 39°49' W 075°22'0 0.0
2017-Sep-14 14:31N 39°49' W 075°22'0 0.0
2017-Sep-14 14:00N 39°49' W 075°22'0 0.0
2017-Sep-14 13:30N 39°49' W 075°22'0 0.0
2017-Sep-14 13:00N 39°49' W 075°22'0 0.0
2017-Sep-14 12:30N 39°49' W 075°22'0 0.0
2017-Sep-14 12:00N 39°49' W 075°22'0 0.0
2017-Sep-14 11:30N 39°49' W 075°22'0 0.0
2017-Sep-14 11:00N 39°49' W 075°22'0 0.0
2017-Sep-14 10:30N 39°49' W 075°22'0 0.0
2017-Sep-14 10:00N 39°49' W 075°22'0 0.0
2017-Sep-14 09:30N 39°49' W 075°22'0 0.0
2017-Sep-14 09:00N 39°49' W 075°22'0 0.0
2017-Sep-14 08:30N 39°49' W 075°22'0 0.0
2017-Sep-14 08:00N 39°49' W 075°22'0 0.0
2017-Sep-14 07:30N 39°49' W 075°22'0 0.0
2017-Sep-14 07:00N 39°49' W 075°22'0 0.0
2017-Sep-14 06:30N 39°49' W 075°22'0 0.0
2017-Sep-14 06:00N 39°49' W 075°22'0 0.0
2017-Sep-14 05:30N 39°49' W 075°22'0 0.0
2017-Sep-14 05:00N 39°49' W 075°22'0 0.0
2017-Sep-14 04:30N 39°49' W 075°22'0 0.0
2017-Sep-14 04:00N 39°49' W 075°22'0 0.0
2017-Sep-14 03:30N 39°49' W 075°22'0 0.0
2017-Sep-14 03:00N 39°49' W 075°22'0 0.0
2017-Sep-14 02:30N 39°49' W 075°22'0 0.0
2017-Sep-14 02:01N 39°49' W 075°22'1 1.0
2017-Sep-14 01:31N 39°50' W 075°22'4 7.2
2017-Sep-14 01:00N 39°51' W 075°18'4 7.0
2017-Sep-14 00:31N 39°52' W 075°13'3 6.5
2017-Sep-14 00:01N 39°53' W 075°09'3 5.7
2017-Sep-13 23:30N 39°56' W 075°08'2 3.6
2017-Sep-13 23:01N 39°57' W 075°08'0 0.0
2017-Sep-13 22:30N 39°57' W 075°08'0 0.1
2017-Sep-13 22:00N 39°57' W 075°08'0 0.0
2017-Sep-13 21:30N 39°57' W 075°08'0 0.0
2017-Sep-13 21:00N 39°57' W 075°08'0 0.0
2017-Sep-13 20:30N 39°57' W 075°08'0 0.0
2017-Sep-13 20:00N 39°57' W 075°08'0 0.0
2017-Sep-13 19:30N 39°57' W 075°08'0 0.0
2017-Sep-13 19:00N 39°57' W 075°08'0 0.0
2017-Sep-13 18:30N 39°57' W 075°08'1 1.8
2017-Sep-13 18:00N 39°57' W 075°08'3 6.7
2017-Sep-13 17:30N 39°53' W 075°08'2 4.9
2017-Sep-13 17:00N 39°53' W 075°12'0 0.0
2017-Sep-13 16:30N 39°53' W 075°12'0 0.0
2017-Sep-13 16:00N 39°53' W 075°12'0 0.0
2017-Sep-13 15:31N 39°53' W 075°12'0 0.0
2017-Sep-13 15:00N 39°53' W 075°12'1 1.4
2017-Sep-13 14:30N 39°53' W 075°12'4 7.6
2017-Sep-13 14:00N 39°51' W 075°16'4 7.4
2017-Sep-13 13:30N 39°51' W 075°21'4 7.5
2017-Sep-13 13:00N 39°48' W 075°25'4 8.0
2017-Sep-13 12:31N 39°46' W 075°29'5 9.1
2017-Sep-13 12:00N 39°41' W 075°31'4 8.9
2017-Sep-13 11:30N 39°38' W 075°34'5 9.1
2017-Sep-13 11:00N 39°34' W 075°33'5 9.6
2017-Sep-13 10:30N 39°29' W 075°34'510.0
2017-Sep-13 10:00N 39°25' W 075°30'510.6
2017-Sep-13 09:30N 39°21' W 075°26'510.8
2017-Sep-13 09:00N 39°17' W 075°21'510.5
2017-Sep-13 08:30N 39°12' W 075°17'510.4
2017-Sep-13 08:00N 39°08' W 075°14'510.3
2017-Sep-13 07:30N 39°03' W 075°10'510.5
2017-Sep-13 07:00N 38°59' W 075°07'510.7
2017-Sep-13 06:30N 38°54' W 075°04'510.2
2017-Sep-13 06:00N 38°49' W 075°01'510.2
2017-Sep-13 05:30N 38°49' W 074°55'510.0
2017-Sep-13 05:00N 38°52' W 074°49'510.1
2017-Sep-13 04:30N 38°56' W 074°46'510.1
2017-Sep-13 04:00N 39°01' W 074°43'510.0
2017-Sep-13 03:30N 39°05' W 074°39'510.0
2017-Sep-13 03:00N 39°09' W 074°36'5 9.9
2017-Sep-13 02:30N 39°13' W 074°32'5 9.9
2017-Sep-13 02:00N 39°17' W 074°28'5 9.7
2017-Sep-13 01:30N 39°21' W 074°24'2 3.9
2017-Sep-13 01:00N 39°22' W 074°25'1 0.1
2017-Sep-12 14:27N 39°23' W 074°25'0 0.1
2017-Sep-12 14:00N 39°23' W 074°25'  
Track history (hours):
 
Tides and Currents Weather Stations Pressure Air Temp Water Temp Dewpoint Dewpoint Depression Visibility Wind Speed Wind Dir Waves Ship Positions

Candace

Owner: WEEKS MARINE, INC., CRANFORD, NJ. More information available from US FCC via Universal Licensing System and Coast Guard Vessel Documentation Center.

Last reported at 2017-Sep-18 04:54 UTC. Time now 2017-Sep-21 15:52 UTC.
Position N 39°24' W 074°26'.

Length 20 m.

Type: Towing. MMSI: 366955450.

Date/timePositionNaut miles runAvg speedWind from/ knotsBaromVisibWave heightAir tempDewpointWater temp
2017-Sep-18 04:54N 39°24' W 074°26'0 0.0
2017-Sep-18 04:06N 39°24' W 074°26'0 0.0
2017-Sep-18 04:00N 39°24' W 074°26'0 0.0
2017-Sep-18 03:30N 39°24' W 074°26'0 0.0
2017-Sep-18 03:00N 39°24' W 074°26'0 0.0
2017-Sep-18 02:30N 39°24' W 074°26'0 0.0
2017-Sep-18 02:00N 39°24' W 074°26'0 0.0
2017-Sep-18 01:29N 39°24' W 074°26'0 0.0
2017-Sep-17 03:59N 39°24' W 074°26'0 0.0
2017-Sep-17 03:17N 39°24' W 074°26'0 0.0
2017-Sep-17 03:00N 39°24' W 074°26'0 0.0
2017-Sep-17 01:18N 39°24' W 074°26'1 0.1
2017-Sep-16 13:39N 39°23' W 074°25'0 0.0
2017-Sep-16 13:30N 39°23' W 074°25'0 0.0
2017-Sep-16 12:59N 39°23' W 074°25'0 0.0
2017-Sep-16 12:30N 39°23' W 074°25'0 0.0
2017-Sep-16 12:00N 39°23' W 074°25'0 0.0
2017-Sep-16 11:13N 39°23' W 074°25'0 0.0
2017-Sep-16 11:00N 39°23' W 074°25'0 0.0
2017-Sep-16 10:30N 39°23' W 074°25'0 0.0
2017-Sep-16 10:00N 39°23' W 074°25'0 0.0
2017-Sep-16 09:30N 39°23' W 074°25'0 0.0
2017-Sep-16 09:00N 39°23' W 074°25'0 0.0
2017-Sep-16 08:30N 39°23' W 074°25'0 0.0
2017-Sep-16 08:00N 39°23' W 074°25'0 0.0
2017-Sep-16 07:30N 39°23' W 074°25'0 0.0
2017-Sep-16 07:00N 39°23' W 074°25'0 0.0
2017-Sep-16 06:30N 39°23' W 074°25'0 0.0
2017-Sep-16 06:00N 39°23' W 074°25'0 0.0
2017-Sep-16 05:30N 39°23' W 074°25'0 0.0
2017-Sep-16 05:00N 39°23' W 074°25'0 0.0
2017-Sep-16 04:30N 39°23' W 074°25'0 0.0
2017-Sep-16 04:00N 39°23' W 074°25'0 0.0
2017-Sep-16 03:30N 39°23' W 074°25'0 0.0
2017-Sep-16 02:26N 39°23' W 074°25'0 0.0
2017-Sep-16 02:00N 39°23' W 074°25'0 0.0
2017-Sep-16 01:30N 39°23' W 074°25'0 0.0
2017-Sep-16 00:52N 39°23' W 074°25'0 0.0
2017-Sep-16 00:20N 39°23' W 074°25'0 0.0
2017-Sep-15 23:51N 39°23' W 074°25'0 0.0
2017-Sep-15 23:30N 39°23' W 074°25'21 3.5
2017-Sep-15 17:28N 39°39' W 074°07'5 9.7
2017-Sep-15 17:00N 39°43' W 074°05'3 6.2
2017-Sep-15 16:28N 39°46' W 074°07'0 0.0
2017-Sep-15 15:59N 39°46' W 074°07'0 0.0
2017-Sep-15 15:28N 39°46' W 074°07'0 0.0
2017-Sep-15 14:57N 39°46' W 074°07'0 0.0
2017-Sep-15 14:29N 39°46' W 074°07'0 0.1
2017-Sep-15 13:58N 39°46' W 074°07'0 0.1
2017-Sep-15 13:29N 39°46' W 074°07'1 1.5
2017-Sep-15 13:00N 39°46' W 074°06'1 1.3
2017-Sep-15 12:27N 39°46' W 074°05'1 3.1
2017-Sep-15 11:59N 39°44' W 074°04'3 6.3
2017-Sep-15 11:30N 39°42' W 074°06'4 7.2
2017-Sep-15 10:58N 39°38' W 074°08'59 5.2
2017-Sep-14 23:32N 39°07' W 075°13'0 8.1
2017-Sep-14 23:30N 39°07' W 075°13'4 7.6
2017-Sep-14 23:00N 39°10' W 075°16'3 7.0
2017-Sep-14 22:31N 39°13' W 075°18'3 6.4
2017-Sep-14 22:01N 39°16' W 075°20'3 5.7
2017-Sep-14 21:31N 39°18' W 075°23'3 5.0
2017-Sep-14 21:00N 39°20' W 075°25'2 4.8
2017-Sep-14 20:31N 39°22' W 075°27'3 5.1
2017-Sep-14 20:00N 39°23' W 075°29'3 5.1
2017-Sep-14 19:31N 39°25' W 075°31'3 5.2
2017-Sep-14 19:00N 39°28' W 075°33'3 5.5
2017-Sep-14 18:30N 39°30' W 075°33'3 6.5
2017-Sep-14 18:01N 39°33' W 075°33'4 7.7
2017-Sep-14 17:31N 39°37' W 075°35'4 7.5
2017-Sep-14 17:01N 39°40' W 075°32'4 7.9
2017-Sep-14 16:30N 39°44' W 075°30'4 7.6
2017-Sep-14 16:01N 39°47' W 075°28'4 7.5
2017-Sep-14 15:31N 39°49' W 075°24'2 3.2
2017-Sep-14 15:00N 39°49' W 075°22'0 0.0
2017-Sep-14 14:31N 39°49' W 075°22'0 0.0
2017-Sep-14 14:00N 39°49' W 075°22'0 0.0
2017-Sep-14 13:30N 39°49' W 075°22'0 0.0
2017-Sep-14 13:00N 39°49' W 075°22'0 0.0
2017-Sep-14 12:30N 39°49' W 075°22'0 0.0
2017-Sep-14 12:00N 39°49' W 075°22'0 0.0
2017-Sep-14 11:30N 39°49' W 075°22'0 0.0
2017-Sep-14 11:00N 39°49' W 075°22'0 0.0
2017-Sep-14 10:30N 39°49' W 075°22'0 0.0
2017-Sep-14 10:00N 39°49' W 075°22'0 0.0
2017-Sep-14 09:30N 39°49' W 075°22'0 0.0
2017-Sep-14 09:00N 39°49' W 075°22'0 0.0
2017-Sep-14 08:30N 39°49' W 075°22'0 0.0
2017-Sep-14 08:00N 39°49' W 075°22'0 0.0
2017-Sep-14 07:30N 39°49' W 075°22'0 0.0
2017-Sep-14 07:00N 39°49' W 075°22'0 0.0
2017-Sep-14 06:30N 39°49' W 075°22'0 0.0
2017-Sep-14 06:00N 39°49' W 075°22'0 0.0
2017-Sep-14 05:30N 39°49' W 075°22'0 0.0
2017-Sep-14 05:00N 39°49' W 075°22'0 0.0
2017-Sep-14 04:30N 39°49' W 075°22'0 0.0
2017-Sep-14 04:00N 39°49' W 075°22'0 0.0
2017-Sep-14 03:30N 39°49' W 075°22'0 0.0
2017-Sep-14 03:00N 39°49' W 075°22'0 0.0
2017-Sep-14 02:30N 39°49' W 075°22'0 0.0
2017-Sep-14 02:01N 39°49' W 075°22'1 1.0
2017-Sep-14 01:31N 39°50' W 075°22'4 7.2
2017-Sep-14 01:00N 39°51' W 075°18'4 7.0
2017-Sep-14 00:31N 39°52' W 075°13'3 6.5
2017-Sep-14 00:01N 39°53' W 075°09'3 5.7
2017-Sep-13 23:30N 39°56' W 075°08'2 3.6
2017-Sep-13 23:01N 39°57' W 075°08'0 0.0
2017-Sep-13 22:30N 39°57' W 075°08'0 0.1
2017-Sep-13 22:00N 39°57' W 075°08'0 0.0
2017-Sep-13 21:30N 39°57' W 075°08'0 0.0
2017-Sep-13 21:00N 39°57' W 075°08'0 0.0
2017-Sep-13 20:30N 39°57' W 075°08'0 0.0
2017-Sep-13 20:00N 39°57' W 075°08'0 0.0
2017-Sep-13 19:30N 39°57' W 075°08'0 0.0
2017-Sep-13 19:00N 39°57' W 075°08'0 0.0
2017-Sep-13 18:30N 39°57' W 075°08'1 1.8
2017-Sep-13 18:00N 39°57' W 075°08'3 6.7
2017-Sep-13 17:30N 39°53' W 075°08'2 4.9
2017-Sep-13 17:00N 39°53' W 075°12'0 0.0
2017-Sep-13 16:30N 39°53' W 075°12'0 0.0
2017-Sep-13 16:00N 39°53' W 075°12'0 0.0
2017-Sep-13 15:31N 39°53' W 075°12'0 0.0
2017-Sep-13 15:00N 39°53' W 075°12'1 1.4
2017-Sep-13 14:30N 39°53' W 075°12'4 7.6
2017-Sep-13 14:00N 39°51' W 075°16'4 7.4
2017-Sep-13 13:30N 39°51' W 075°21'4 7.5
2017-Sep-13 13:00N 39°48' W 075°25'4 8.0
2017-Sep-13 12:31N 39°46' W 075°29'5 9.1
2017-Sep-13 12:00N 39°41' W 075°31'4 8.9
2017-Sep-13 11:30N 39°38' W 075°34'5 9.1
2017-Sep-13 11:00N 39°34' W 075°33'5 9.6
2017-Sep-13 10:30N 39°29' W 075°34'510.0
2017-Sep-13 10:00N 39°25' W 075°30'510.6
2017-Sep-13 09:30N 39°21' W 075°26'510.8
2017-Sep-13 09:00N 39°17' W 075°21'510.5
2017-Sep-13 08:30N 39°12' W 075°17'510.4
2017-Sep-13 08:00N 39°08' W 075°14'510.3
2017-Sep-13 07:30N 39°03' W 075°10'510.5
2017-Sep-13 07:00N 38°59' W 075°07'510.7
2017-Sep-13 06:30N 38°54' W 075°04'510.2
2017-Sep-13 06:00N 38°49' W 075°01'510.2
2017-Sep-13 05:30N 38°49' W 074°55'510.0
2017-Sep-13 05:00N 38°52' W 074°49'510.1
2017-Sep-13 04:30N 38°56' W 074°46'510.1
2017-Sep-13 04:00N 39°01' W 074°43'510.0
2017-Sep-13 03:30N 39°05' W 074°39'510.0
2017-Sep-13 03:00N 39°09' W 074°36'5 9.9
2017-Sep-13 02:30N 39°13' W 074°32'5 9.9
2017-Sep-13 02:00N 39°17' W 074°28'5 9.7
2017-Sep-13 01:30N 39°21' W 074°24'2 3.9
2017-Sep-13 01:00N 39°22' W 074°25'1 0.1
2017-Sep-12 14:27N 39°23' W 074°25'0 0.1
2017-Sep-12 14:00N 39°23' W 074°25'  

Dump ship's entire track history